Time;durP1;ratioP1;P1;durP2;ratioP2;P2;SDS_P1;SDS_P2;PMS_P1;PMS_P2;Temp;Humidity;BMP_temperature;BMP_pressure;BME280_temperature;BME280_humidity;BME280_pressure;Samples;Min_cycle;Max_cycle;Signal;HPM_P1;HPM_P2
2023/07/19 00:00:52;;;;;;;20.48;10.95;;;;;;;17.98;77.15;101321.78;5050552;28;20024;-68
2023/07/19 00:03:17;;;;;;;20.63;11.43;;;;;;;17.98;77.63;101319.00;5051710;28;20057;-67
2023/07/19 00:05:42;;;;;;;19.58;11.20;;;;;;;17.97;77.42;101314.56;5051839;28;20027;-69
2023/07/19 00:08:08;;;;;;;18.65;11.30;;;;;;;17.96;77.63;101319.34;5051827;28;20090;-69
2023/07/19 00:10:33;;;;;;;20.42;10.90;;;;;;;17.95;77.45;101317.69;5051967;28;20037;-69
2023/07/19 00:12:59;;;;;;;19.85;10.73;;;;;;;17.93;77.33;101318.03;5052065;28;20115;-70
2023/07/19 00:15:24;;;;;;;22.23;11.63;;;;;;;17.91;77.67;101306.34;5051832;28;20056;-70
2023/07/19 00:17:50;;;;;;;19.55;11.40;;;;;;;17.87;76.71;101299.81;5051682;28;20091;-69
2023/07/19 00:20:15;;;;;;;19.20;10.80;;;;;;;17.85;77.45;101299.34;5051716;28;20110;-69
2023/07/19 00:22:41;;;;;;;17.85;10.55;;;;;;;17.83;77.41;101304.47;5051612;28;20036;-69
2023/07/19 00:25:07;;;;;;;18.52;10.95;;;;;;;17.77;78.20;101303.03;5051649;28;20037;-70
2023/07/19 00:27:32;;;;;;;19.83;11.25;;;;;;;17.72;78.06;101297.66;5051441;28;20500;-69
2023/07/19 00:29:58;;;;;;;18.55;10.93;;;;;;;17.66;78.58;101293.44;5051526;28;20025;-69
2023/07/19 00:32:23;;;;;;;19.40;11.10;;;;;;;17.58;79.44;101287.56;5051646;28;20052;-69
2023/07/19 00:34:49;;;;;;;19.83;10.65;;;;;;;17.50;80.45;101290.47;5051413;28;20473;-69
2023/07/19 00:37:14;;;;;;;20.20;10.43;;;;;;;17.40;81.26;101283.28;5051565;28;20048;-70
2023/07/19 00:39:39;;;;;;;21.15;10.93;;;;;;;17.34;81.73;101281.88;5049944;28;20060;-69
2023/07/19 00:42:05;;;;;;;18.90;10.57;;;;;;;17.26;82.34;101276.03;5051479;28;20021;-69
2023/07/19 00:44:30;;;;;;;20.58;11.43;;;;;;;17.20;82.75;101276.56;5051426;28;20033;-69
2023/07/19 00:47:00;;;;;;;20.58;11.10;;;;;;;17.08;84.14;101274.53;5049873;28;20021;-69
2023/07/19 00:49:26;;;;;;;21.00;11.63;;;;;;;17.05;84.22;101261.22;5051364;28;20083;-69
2023/07/19 00:51:51;;;;;;;21.08;12.05;;;;;;;16.97;84.85;101263.75;5051312;28;20025;-69
2023/07/19 00:54:18;;;;;;;22.13;11.93;;;;;;;16.94;84.94;101258.81;5051188;28;20445;-69
2023/07/19 00:56:43;;;;;;;18.83;11.10;;;;;;;16.90;84.98;101260.66;5051341;28;20029;-69
2023/07/19 00:59:12;;;;;;;19.00;11.18;;;;;;;16.85;85.57;101260.84;5051159;28;20109;-69
2023/07/19 01:01:38;;;;;;;19.08;11.48;;;;;;;16.81;85.51;101255.09;5051491;28;20028;-69
2023/07/19 01:04:03;;;;;;;19.15;11.38;;;;;;;16.72;86.75;101248.75;5051240;28;20040;-69
2023/07/19 01:06:28;;;;;;;18.83;11.70;;;;;;;16.75;85.85;101247.25;5051039;28;20029;-69
2023/07/19 01:08:54;;;;;;;20.85;11.88;;;;;;;16.69;86.90;101255.00;5051054;28;20040;-69
2023/07/19 01:11:19;;;;;;;19.45;12.15;;;;;;;16.61;87.50;101253.94;5051071;28;20030;-69
2023/07/19 01:13:54;;;;;;;19.35;11.75;;;;;;;16.57;86.91;101249.34;5049647;28;20025;-69
2023/07/19 01:16:20;;;;;;;19.05;11.80;;;;;;;16.57;86.95;101249.34;5053056;28;20503;-69
2023/07/19 01:18:46;;;;;;;19.50;12.40;;;;;;;16.51;87.78;101265.47;5055155;28;20033;-69
2023/07/19 01:21:12;;;;;;;20.55;12.50;;;;;;;16.50;87.11;101258.25;5055200;28;20508;-69
2023/07/19 01:23:37;;;;;;;18.42;12.20;;;;;;;16.43;88.38;101252.38;5055171;28;20024;-69
2023/07/19 01:26:03;;;;;;;19.98;12.35;;;;;;;16.35;88.96;101252.06;5055075;28;20120;-70
2023/07/19 01:28:29;;;;;;;19.58;12.68;;;;;;;16.33;88.79;101248.00;5055205;28;20124;-70
2023/07/19 01:30:54;;;;;;;18.90;12.50;;;;;;;16.25;89.39;101243.28;5054950;28;20117;-70
2023/07/19 01:33:19;;;;;;;19.52;12.25;;;;;;;16.19;89.10;101232.31;5054741;28;20048;-70
2023/07/19 01:35:45;;;;;;;19.77;12.60;;;;;;;16.19;88.86;101237.88;5054884;28;20208;-69
2023/07/19 01:38:11;;;;;;;19.20;12.57;;;;;;;16.16;89.25;101234.91;5054728;28;20450;-69
2023/07/19 01:40:36;;;;;;;18.60;12.35;;;;;;;16.11;89.63;101223.94;5054654;28;20377;-69
2023/07/19 01:43:01;;;;;;;18.90;12.65;;;;;;;16.13;89.09;101222.47;5054670;28;20108;-69
2023/07/19 01:45:27;;;;;;;20.33;12.52;;;;;;;16.03;90.30;101215.28;5054660;28;20036;-70
2023/07/19 01:47:53;;;;;;;19.40;13.07;;;;;;;15.97;89.92;101213.81;5054600;28;20473;-70
2023/07/19 01:50:18;;;;;;;20.20;13.15;;;;;;;15.95;90.00;101229.25;5054574;28;20146;-70
2023/07/19 01:52:43;;;;;;;19.50;12.88;;;;;;;16.03;89.79;101237.63;5053252;28;20045;-68
2023/07/19 01:55:09;;;;;;;20.25;12.20;;;;;;;16.05;90.01;101238.09;5054408;28;20039;-68
2023/07/19 01:57:34;;;;;;;20.42;12.63;;;;;;;16.03;90.04;101232.03;5054418;28;20496;-68
2023/07/19 02:00:00;;;;;;;19.80;12.25;;;;;;;16.12;89.21;101233.97;5054387;28;20083;-68
2023/07/19 02:02:25;;;;;;;19.55;12.52;;;;;;;16.18;88.90;101233.44;5054180;28;20108;-68
2023/07/19 02:04:50;;;;;;;19.63;12.27;;;;;;;16.21;88.71;101226.38;5054272;28;20115;-68
2023/07/19 02:07:16;;;;;;;20.13;13.40;;;;;;;16.19;88.77;101225.88;5054203;28;20028;-67
2023/07/19 02:09:41;;;;;;;21.00;12.85;;;;;;;16.18;89.06;101230.66;5054137;28;20435;-67
2023/07/19 02:12:07;;;;;;;20.20;13.20;;;;;;;16.13;89.89;101233.63;5052620;28;20090;-68
2023/07/19 02:14:32;;;;;;;20.83;12.57;;;;;;;16.13;89.63;101230.03;5053900;28;20040;-68
2023/07/19 02:16:58;;;;;;;18.88;13.23;;;;;;;16.10;90.11;101225.94;5054134;28;20029;-68
2023/07/19 02:19:23;;;;;;;19.60;12.52;;;;;;;16.11;89.58;101221.16;5053946;28;20104;-68
2023/07/19 02:21:49;;;;;;;19.95;12.48;;;;;;;16.09;89.74;101217.88;5054085;28;20025;-69
2023/07/19 02:24:15;;;;;;;18.60;12.35;;;;;;;16.10;89.51;101222.31;5053916;28;20040;-68
2023/07/19 02:26:41;;;;;;;19.98;13.15;;;;;;;16.10;89.22;101220.34;5053362;28;20133;-68
2023/07/19 02:29:06;;;;;;;18.88;12.40;;;;;;;16.05;89.59;101209.38;5053951;28;20099;-68
2023/07/19 02:31:32;;;;;;;20.75;13.43;;;;;;;16.09;89.71;101210.34;5052431;28;20056;-69
2023/07/19 02:33:57;;;;;;;22.30;13.57;;;;;;;16.11;89.39;101204.41;5053938;28;20056;-68
2023/07/19 02:36:22;;;;;;;20.30;13.05;;;;;;;16.12;89.32;101206.88;5053740;28;20393;-68
2023/07/19 02:38:47;;;;;;;20.00;12.90;;;;;;;16.12;89.74;101206.88;5053611;28;20108;-68
2023/07/19 02:41:13;;;;;;;20.60;13.68;;;;;;;16.15;89.47;101211.78;5053547;28;20206;-68
2023/07/19 02:43:38;;;;;;;19.58;12.50;;;;;;;16.19;88.94;101206.34;5052085;28;20392;-68
2023/07/19 02:46:03;;;;;;;20.48;12.85;;;;;;;16.19;88.53;101209.13;5053368;28;20345;-68
2023/07/19 02:48:29;;;;;;;19.52;12.80;;;;;;;16.21;88.74;101216.00;5053465;28;20060;-68
2023/07/19 02:50:54;;;;;;;20.15;12.88;;;;;;;16.20;87.98;101208.78;5053451;28;20493;-68
2023/07/19 02:53:19;;;;;;;20.58;12.55;;;;;;;16.23;87.71;101218.50;5053401;28;20042;-69
2023/07/19 02:55:45;;;;;;;20.67;12.40;;;;;;;16.24;87.67;101217.34;5053317;28;20059;-68
2023/07/19 02:58:11;;;;;;;18.63;12.35;;;;;;;16.26;87.37;101217.78;5053336;28;20037;-68
2023/07/19 03:00:43;;;;;;;20.35;13.13;;;;;;;16.31;86.91;101223.22;5053240;28;20033;-67
2023/07/19 03:03:10;;;;;;;20.83;12.32;;;;;;;16.31;86.81;101209.25;5051887;28;20075;-68
2023/07/19 03:05:39;;;;;;;19.08;12.02;;;;;;;16.41;86.89;101227.56;5053156;28;20029;-68
2023/07/19 03:08:08;;;;;;;19.83;12.60;;;;;;;16.41;86.17;101208.03;5053244;28;20031;-68
2023/07/19 03:10:34;;;;;;;21.67;12.90;;;;;;;16.45;86.03;101205.38;5051738;28;20025;-67
2023/07/19 03:12:59;;;;;;;20.42;12.52;;;;;;;16.45;85.76;101209.00;5051635;28;20039;-68
2023/07/19 03:15:25;;;;;;;20.55;13.20;;;;;;;16.47;85.82;101212.28;5052936;28;20105;-69
2023/07/19 03:17:50;;;;;;;21.52;13.27;;;;;;;16.48;85.66;101218.69;5052873;28;20472;-70
2023/07/19 03:20:15;;;;;;;22.42;14.38;;;;;;;16.42;85.83;101215.25;5052895;28;20040;-68
2023/07/19 03:22:41;;;;;;;22.92;15.13;;;;;;;16.44;85.49;101221.31;5052837;28;20115;-68
2023/07/19 03:25:07;;;;;;;23.17;15.38;;;;;;;16.38;86.50;101209.53;5052839;28;20451;-68
2023/07/19 03:27:32;;;;;;;23.17;15.30;;;;;;;16.40;85.76;101214.75;5052519;28;20408;-68
2023/07/19 03:29:57;;;;;;;24.52;15.07;;;;;;;16.43;86.00;101214.09;5052582;28;20060;-68
2023/07/19 03:32:23;;;;;;;24.95;16.60;;;;;;;16.45;85.67;101219.34;5052663;28;20045;-68
2023/07/19 03:34:48;;;;;;;25.73;15.52;;;;;;;16.44;86.13;101223.28;5052377;28;20151;-68
2023/07/19 03:37:14;;;;;;;24.17;16.08;;;;;;;16.47;85.41;101217.03;5052578;28;20082;-69
2023/07/19 03:39:39;;;;;;;24.35;15.68;;;;;;;16.46;85.47;101223.78;5051853;28;20033;-69
2023/07/19 03:42:05;;;;;;;25.73;15.40;;;;;;;16.48;85.04;101233.44;5052258;28;20167;-68
2023/07/19 03:44:30;;;;;;;23.77;15.60;;;;;;;16.53;85.18;101238.03;5052088;28;20033;-68
2023/07/19 03:46:56;;;;;;;24.58;14.43;;;;;;;16.57;85.66;101232.59;5051977;28;20111;-68
2023/07/19 03:49:21;;;;;;;23.80;14.60;;;;;;;16.59;85.39;101233.88;5052129;28;20385;-68
2023/07/19 03:51:46;;;;;;;21.25;13.07;;;;;;;16.59;85.49;101233.88;5052094;28;20155;-68
2023/07/19 03:54:12;;;;;;;20.35;13.20;;;;;;;16.60;85.54;101231.91;5052006;28;20112;-69
2023/07/19 03:56:37;;;;;;;22.23;13.32;;;;;;;16.63;85.06;101229.25;5052013;28;20025;-68
2023/07/19 03:59:03;;;;;;;21.27;12.60;;;;;;;16.59;84.50;101225.50;5051680;28;20021;-68
2023/07/19 04:01:28;;;;;;;19.77;12.05;;;;;;;16.63;84.59;101222.84;5051940;28;20635;-68
2023/07/19 04:03:53;;;;;;;21.00;12.48;;;;;;;16.63;84.30;101228.44;5051942;28;20029;-69
2023/07/19 04:06:19;;;;;;;21.02;11.80;;;;;;;16.63;84.18;101225.66;5051853;28;20044;-68
2023/07/19 04:08:44;;;;;;;19.75;11.52;;;;;;;16.65;84.10;101226.94;5052200;28;20116;-68
2023/07/19 04:11:10;;;;;;;20.40;11.98;;;;;;;16.66;83.91;101228.59;5052248;28;20433;-68
2023/07/19 04:13:35;;;;;;;19.40;11.82;;;;;;;16.65;83.96;101229.72;5052074;28;20472;-67
2023/07/19 04:16:01;;;;;;;19.25;11.60;;;;;;;16.64;83.92;101222.50;5050274;28;20025;-68
2023/07/19 04:18:26;;;;;;;19.92;11.60;;;;;;;16.64;83.63;101216.91;5051871;28;20078;-67
2023/07/19 04:20:56;;;;;;;19.20;11.57;;;;;;;16.66;83.78;101223.00;5051686;28;20558;-68
2023/07/19 04:23:22;;;;;;;21.02;11.85;;;;;;;16.68;83.97;101222.66;5051708;28;20032;-68
2023/07/19 04:25:49;;;;;;;19.08;11.70;;;;;;;16.64;84.23;101216.91;5051521;28;20393;-69
2023/07/19 04:28:14;;;;;;;18.67;10.95;;;;;;;16.66;84.13;101217.41;5051774;28;20052;-68
2023/07/19 04:30:39;;;;;;;21.15;11.05;;;;;;;16.69;84.15;101218.69;5051428;28;20025;-68
2023/07/19 04:33:05;;;;;;;19.15;10.65;;;;;;;16.72;84.08;101220.81;5051440;28;20032;-69
2023/07/19 04:35:30;;;;;;;21.20;11.52;;;;;;;16.73;83.99;101221.63;5051357;28;20052;-69
2023/07/19 04:37:55;;;;;;;21.65;12.40;;;;;;;16.64;84.75;101224.50;5050910;28;20443;-68
2023/07/19 04:40:21;;;;;;;20.13;12.18;;;;;;;16.56;85.08;101215.00;5051354;28;20032;-68
2023/07/19 04:42:46;;;;;;;20.63;12.65;;;;;;;16.61;85.03;101227.97;5051306;28;20043;-68
2023/07/19 04:45:13;;;;;;;22.05;12.20;;;;;;;16.65;84.70;101226.94;5051190;28;20031;-68
2023/07/19 04:47:38;;;;;;;19.73;12.48;;;;;;;16.68;84.24;101228.22;5051692;28;20108;-68
2023/07/19 04:50:07;;;;;;;19.52;12.35;;;;;;;16.75;83.66;101234.13;5051181;28;20524;-68
2023/07/19 04:52:32;;;;;;;20.00;12.27;;;;;;;16.80;83.28;101230.31;5050942;28;20507;-68
2023/07/19 04:54:57;;;;;;;19.83;11.88;;;;;;;16.81;83.23;101229.97;5051103;28;20050;-68
2023/07/19 04:57:23;;;;;;;20.42;11.60;;;;;;;16.84;83.06;101226.50;5051057;28;20036;-68
2023/07/19 04:59:48;;;;;;;20.15;12.05;;;;;;;16.86;82.70;101234.53;5051052;28;20024;-68
2023/07/19 05:02:14;;;;;;;18.98;11.73;;;;;;;16.89;82.53;101236.66;5051079;28;20029;-68
2023/07/19 05:04:39;;;;;;;19.35;12.00;;;;;;;16.91;82.03;101239.09;5051062;28;20028;-68
2023/07/19 05:07:04;;;;;;;19.50;12.35;;;;;;;16.90;81.90;101245.84;5049701;28;20342;-68
2023/07/19 05:09:30;;;;;;;18.73;12.25;;;;;;;16.91;82.20;101248.28;5050868;28;20469;-68
2023/07/19 05:11:55;;;;;;;20.02;12.18;;;;;;;16.96;81.76;101241.72;5050910;28;20109;-69
2023/07/19 05:14:20;;;;;;;20.30;11.88;;;;;;;17.03;81.96;101244.81;5050708;28;20120;-68
2023/07/19 05:16:46;;;;;;;20.50;12.32;;;;;;;17.06;81.29;101240.50;5050973;28;20112;-68
2023/07/19 05:19:12;;;;;;;22.40;11.88;;;;;;;17.10;81.22;101244.22;5050817;28;20047;-68
2023/07/19 05:21:37;;;;;;;20.35;11.82;;;;;;;17.12;81.18;101239.97;5049546;28;20036;-68
2023/07/19 05:24:03;;;;;;;20.17;12.27;;;;;;;17.16;80.93;101237.28;5049578;28;20028;-67
2023/07/19 05:26:30;;;;;;;20.83;12.63;;;;;;;17.21;80.84;101241.84;5050502;28;20029;-67
2023/07/19 05:28:55;;;;;;;20.17;12.50;;;;;;;17.23;80.59;101237.56;5051195;28;20558;-69
2023/07/19 05:31:20;;;;;;;20.35;12.68;;;;;;;17.29;80.44;101235.38;5051020;28;20071;-68
2023/07/19 05:33:46;;;;;;;21.42;12.73;;;;;;;17.36;80.44;101241.22;5049497;28;20143;-68
2023/07/19 05:36:11;;;;;;;21.42;12.40;;;;;;;17.43;80.11;101249.88;5050635;28;20112;-68
2023/07/19 05:38:37;;;;;;;20.45;12.48;;;;;;;17.51;80.05;101242.56;5050728;28;20017;-68
2023/07/19 05:41:04;;;;;;;20.67;12.80;;;;;;;17.57;79.98;101245.97;5050725;28;20021;-68
2023/07/19 05:43:31;;;;;;;22.45;12.88;;;;;;;17.65;79.89;101242.25;5050534;28;20374;-69
2023/07/19 05:46:07;;;;;;;21.02;12.30;;;;;;;17.72;79.34;101239.72;5050591;28;20036;-69
2023/07/19 05:48:34;;;;;;;21.05;12.07;;;;;;;17.81;79.32;101248.03;5050668;28;20116;-70
2023/07/19 05:51:00;;;;;;;19.00;11.75;;;;;;;17.88;79.12;101233.47;5050590;28;20021;-69
2023/07/19 05:53:25;;;;;;;21.25;12.68;;;;;;;17.95;78.34;101241.31;5050635;28;20029;-67
2023/07/19 05:55:52;;;;;;;20.23;12.95;;;;;;;18.05;78.43;101238.06;5050408;28;20469;-68
2023/07/19 05:58:21;;;;;;;20.88;12.68;;;;;;;18.10;77.88;101235.03;5050944;28;20086;-68
2023/07/19 06:00:49;;;;;;;22.35;12.82;;;;;;;18.17;77.76;101238.06;5050583;28;20388;-69
2023/07/19 06:03:18;;;;;;;21.55;12.90;;;;;;;18.22;77.37;101242.63;5053464;28;20481;-68
2023/07/19 06:05:44;;;;;;;21.88;12.75;;;;;;;18.30;76.92;101238.91;5054194;28;20481;-68
2023/07/19 06:08:10;;;;;;;22.77;12.93;;;;;;;18.33;76.45;101240.16;5054231;28;20090;-69
2023/07/19 06:10:37;;;;;;;21.17;12.73;;;;;;;18.41;76.12;101233.66;5054078;28;20531;-69
2023/07/19 06:13:03;;;;;;;19.52;12.35;;;;;;;18.43;75.08;101234.09;5054267;28;20046;-68
2023/07/19 06:15:29;;;;;;;21.75;13.02;;;;;;;18.47;75.38;101237.84;5054060;28;20025;-69
2023/07/19 06:17:54;;;;;;;23.55;12.65;;;;;;;18.53;74.67;101239.25;5054010;28;20167;-69
2023/07/19 06:20:20;;;;;;;23.35;12.30;;;;;;;18.63;74.95;101231.53;5053919;28;20111;-69
2023/07/19 06:22:45;;;;;;;21.25;12.40;;;;;;;18.75;73.81;101228.72;5053849;28;20028;-67
2023/07/19 06:25:11;;;;;;;21.15;12.35;;;;;;;18.82;73.48;101228.91;5053841;28;20032;-69
2023/07/19 06:27:37;;;;;;;20.88;12.20;;;;;;;18.88;72.95;101228.69;5053663;28;20132;-68
2023/07/19 06:30:03;;;;;;;20.90;12.07;;;;;;;18.89;72.88;101231.13;5053834;28;20112;-68
2023/07/19 06:32:28;;;;;;;21.42;12.65;;;;;;;18.88;72.77;101229.50;5053722;28;20199;-69
2023/07/19 06:34:53;;;;;;;21.05;11.80;;;;;;;18.90;72.38;101224.34;5053630;28;20024;-68
2023/07/19 06:37:19;;;;;;;21.33;12.20;;;;;;;18.90;72.03;101226.34;5053672;28;20029;-68
2023/07/19 06:39:46;;;;;;;21.30;12.35;;;;;;;18.86;72.90;101227.06;5053422;28;20610;-67
2023/07/19 06:42:11;;;;;;;19.85;11.82;;;;;;;18.84;72.60;101223.78;5053781;28;20108;-68
2023/07/19 06:44:37;;;;;;;19.00;11.80;;;;;;;18.90;72.91;101232.78;5053573;28;20111;-68
2023/07/19 06:47:03;;;;;;;24.25;13.45;;;;;;;18.94;72.62;101232.91;5053416;28;20067;-68
2023/07/19 06:49:29;;;;;;;21.30;12.65;;;;;;;18.99;72.35;101235.44;5053417;28;20028;-68
2023/07/19 06:51:54;;;;;;;21.52;12.30;;;;;;;19.08;72.23;101236.13;5053377;28;20370;-69
2023/07/19 06:54:19;;;;;;;20.63;12.32;;;;;;;19.16;71.40;101234.34;5053308;28;20025;-69
2023/07/19 06:56:45;;;;;;;23.23;12.20;;;;;;;19.31;70.94;101236.41;5053451;28;20033;-69
2023/07/19 06:59:10;;;;;;;21.90;12.63;;;;;;;19.48;70.33;101232.47;5051853;28;20029;-68
2023/07/19 07:01:36;;;;;;;21.00;12.73;;;;;;;19.62;69.37;101226.44;5053231;28;20032;-68
2023/07/19 07:04:01;;;;;;;21.17;12.55;;;;;;;19.72;68.70;101233.53;5053128;28;20057;-68
2023/07/19 07:06:27;;;;;;;20.70;12.40;;;;;;;19.86;68.88;101233.13;5053129;28;20033;-67
2023/07/19 07:08:52;;;;;;;20.75;12.52;;;;;;;20.10;68.20;101239.72;5053059;28;20481;-68
2023/07/19 07:11:17;;;;;;;19.67;11.98;;;;;;;20.29;67.66;101235.38;5053007;28;20028;-68
2023/07/19 07:13:43;;;;;;;21.75;12.88;;;;;;;20.46;67.23;101231.38;5050538;28;20060;-67
2023/07/19 07:16:08;;;;;;;22.05;12.82;;;;;;;20.54;66.87;101236.81;5052857;28;20047;-66
2023/07/19 07:18:33;;;;;;;21.02;12.82;;;;;;;20.62;66.30;101234.16;5051642;28;20075;-67
2023/07/19 07:20:59;;;;;;;20.55;12.82;;;;;;;20.67;66.07;101240.31;5051492;28;20044;-68
2023/07/19 07:23:24;;;;;;;22.08;12.48;;;;;;;20.73;66.22;101238.88;5052790;28;20028;-67
2023/07/19 07:25:53;;;;;;;21.40;12.55;;;;;;;20.70;65.47;101235.97;5052801;28;20044;-68
2023/07/19 07:28:19;;;;;;;20.77;12.73;;;;;;;20.66;65.30;101240.66;5053086;28;20061;-67
2023/07/19 07:30:44;;;;;;;20.85;12.63;;;;;;;20.69;66.22;101237.94;5052662;28;20032;-68
2023/07/19 07:33:09;;;;;;;22.58;12.57;;;;;;;20.68;66.33;101239.16;5052589;28;20036;-69
2023/07/19 07:35:36;;;;;;;20.60;11.93;;;;;;;20.67;66.25;101226.28;5052306;28;20493;-68
2023/07/19 07:38:01;;;;;;;20.73;12.10;;;;;;;20.60;66.20;101222.47;5052322;28;20174;-68
2023/07/19 07:40:27;;;;;;;20.80;12.35;;;;;;;20.53;66.30;101229.56;5052351;28;20021;-67
2023/07/19 07:42:52;;;;;;;20.05;12.52;;;;;;;20.49;66.79;101231.47;5052658;28;20392;-68
2023/07/19 07:45:18;;;;;;;19.52;12.25;;;;;;;20.41;67.03;101230.47;5050817;28;20033;-68
2023/07/19 07:47:43;;;;;;;19.85;12.02;;;;;;;20.38;67.27;101221.94;5052190;28;20031;-67
2023/07/19 07:50:09;;;;;;;22.52;12.20;;;;;;;20.42;67.27;101222.88;5052186;28;20078;-68
2023/07/19 07:52:35;;;;;;;19.95;12.10;;;;;;;20.41;66.89;101226.84;5052035;28;20025;-68
2023/07/19 07:55:01;;;;;;;21.48;12.38;;;;;;;20.40;67.44;101225.22;5052182;28;20045;-68
2023/07/19 07:57:26;;;;;;;20.77;12.07;;;;;;;20.42;67.33;101226.47;5052049;28;20097;-67
2023/07/19 07:59:51;;;;;;;21.75;12.20;;;;;;;20.44;67.64;101214.91;5052053;28;20029;-67
2023/07/19 08:02:17;;;;;;;20.27;12.30;;;;;;;20.50;67.41;101227.47;5051992;28;20037;-67
2023/07/19 08:04:42;;;;;;;19.83;11.75;;;;;;;20.60;67.21;101222.47;5051961;28;20029;-68
2023/07/19 08:07:08;;;;;;;19.65;12.10;;;;;;;20.70;67.23;101225.50;5051881;28;20052;-68
2023/07/19 08:09:34;;;;;;;20.15;12.10;;;;;;;20.78;67.05;101222.91;5051960;28;20029;-68
2023/07/19 08:11:59;;;;;;;21.40;12.07;;;;;;;20.84;67.66;101221.44;5051718;28;20477;-68
2023/07/19 08:14:25;;;;;;;21.83;11.80;;;;;;;21.01;67.10;101217.41;5051569;28;20036;-68
2023/07/19 08:16:52;;;;;;;19.40;10.70;;;;;;;21.12;64.98;101211.97;5051621;28;20110;-69
2023/07/19 08:19:17;;;;;;;20.92;11.40;;;;;;;21.22;65.22;101217.03;5051566;28;20426;-69
2023/07/19 08:21:42;;;;;;;20.23;10.95;;;;;;;21.33;64.32;101209.63;5051534;28;20116;-67
2023/07/19 08:24:08;;;;;;;18.67;11.02;;;;;;;21.56;63.76;101208.81;5051345;28;20315;-68
2023/07/19 08:26:33;;;;;;;19.70;11.00;;;;;;;21.77;63.88;101211.25;5051403;28;20073;-68
2023/07/19 08:28:59;;;;;;;18.65;10.60;;;;;;;21.86;61.73;101204.56;5051469;28;20056;-68
2023/07/19 08:31:24;;;;;;;18.00;10.27;;;;;;;22.00;60.01;101210.44;5051567;28;20056;-68
2023/07/19 08:33:49;;;;;;;18.48;10.60;;;;;;;22.17;60.18;101199.84;5051503;28;20028;-68
2023/07/19 08:36:14;;;;;;;19.17;10.05;;;;;;;22.19;58.67;101198.31;5049856;28;20029;-66
2023/07/19 08:38:40;;;;;;;18.05;10.30;;;;;;;22.08;56.94;101200.91;5051322;28;20028;-68
2023/07/19 08:41:06;;;;;;;18.48;10.10;;;;;;;22.21;58.05;101200.72;5051281;28;20064;-68
2023/07/19 08:43:36;;;;;;;19.10;10.00;;;;;;;22.38;58.14;101199.38;5051088;28;20059;-68
2023/07/19 08:46:02;;;;;;;16.95;9.73;;;;;;;22.34;57.40;101201.31;5051216;28;20044;-66
2023/07/19 08:48:28;;;;;;;18.67;10.23;;;;;;;22.31;57.89;101207.72;5051206;28;20033;-66
2023/07/19 08:50:56;;;;;;;16.48;9.40;;;;;;;22.15;56.07;101210.69;5049797;28;20130;-69
2023/07/19 08:53:23;;;;;;;19.35;9.60;;;;;;;22.08;56.29;101203.75;5051188;28;20119;-67
2023/07/19 08:55:49;;;;;;;17.15;9.57;;;;;;;21.93;56.17;101210.34;5049719;28;20025;-66
2023/07/19 08:58:17;;;;;;;16.45;10.27;;;;;;;21.86;57.01;101216.66;5051192;28;20033;-67
2023/07/19 09:00:42;;;;;;;15.82;9.35;;;;;;;21.96;56.89;101216.03;5051290;28;20029;-67
2023/07/19 09:03:09;;;;;;;18.15;9.80;;;;;;;22.05;57.01;101217.78;5049501;28;20021;-67
2023/07/19 09:05:35;;;;;;;17.52;10.25;;;;;;;22.20;57.32;101213.19;5051114;28;20132;-66
2023/07/19 09:08:02;;;;;;;18.52;10.02;;;;;;;22.29;57.46;101203.25;5050970;28;20033;-66
2023/07/19 09:10:28;;;;;;;20.50;10.73;;;;;;;22.37;57.82;101209.03;5051026;28;20032;-67
2023/07/19 09:12:54;;;;;;;20.15;11.00;;;;;;;22.28;58.32;101210.13;5051019;28;20024;-68
2023/07/19 09:15:20;;;;;;;18.80;10.60;;;;;;;22.38;58.65;101208.66;5050859;28;20025;-68
2023/07/19 09:17:47;;;;;;;18.42;10.65;;;;;;;22.39;58.08;101192.53;5050905;28;20056;-67
2023/07/19 09:20:14;;;;;;;19.75;10.63;;;;;;;22.48;57.77;101209.22;5050811;28;20086;-67
2023/07/19 09:22:41;;;;;;;19.52;11.10;;;;;;;22.53;57.96;101204.06;5050940;28;20029;-67
2023/07/19 09:25:09;;;;;;;19.38;10.70;;;;;;;22.60;58.51;101197.72;5050884;28;20029;-67
2023/07/19 09:27:35;;;;;;;19.08;10.75;;;;;;;22.87;58.30;101203.31;5050852;28;20461;-68
2023/07/19 09:30:03;;;;;;;17.83;9.90;;;;;;;23.19;57.90;101205.78;5050761;28;20029;-67
2023/07/19 09:32:29;;;;;;;20.05;11.50;;;;;;;23.43;56.48;101206.44;5051106;28;20039;-67
2023/07/19 09:34:56;;;;;;;19.50;10.48;;;;;;;23.40;56.63;101208.03;5050782;28;20066;-68
2023/07/19 09:37:23;;;;;;;18.45;10.55;;;;;;;23.28;57.00;101214.75;5052727;28;20033;-67
2023/07/19 09:39:49;;;;;;;19.90;10.60;;;;;;;22.94;57.56;101211.88;5053479;28;20074;-67
2023/07/19 09:42:14;;;;;;;21.25;10.65;;;;;;;22.76;59.37;101211.66;5054684;28;20025;-67
2023/07/19 09:44:40;;;;;;;21.02;10.60;;;;;;;22.63;59.62;101210.25;5054664;28;20032;-67
2023/07/19 09:47:09;;;;;;;19.35;11.07;;;;;;;22.60;60.48;101217.47;5053272;28;20481;-68
2023/07/19 09:49:36;;;;;;;17.88;10.40;;;;;;;22.59;60.30;101199.72;5054611;28;20032;-68
2023/07/19 09:52:03;;;;;;;19.50;10.73;;;;;;;22.39;60.83;101213.09;5054771;28;20057;-67
2023/07/19 09:54:31;;;;;;;20.13;10.85;;;;;;;22.31;61.17;101202.06;5054414;28;20473;-67
2023/07/19 09:56:56;;;;;;;19.48;10.60;;;;;;;22.25;61.49;101205.22;5054536;28;20036;-68
2023/07/19 09:59:33;;;;;;;17.65;9.90;;;;;;;22.18;62.03;101207.09;5054426;28;20025;-67
2023/07/19 10:02:00;;;;;;;18.30;10.68;;;;;;;22.24;62.14;101214.06;5054468;28;20036;-68
2023/07/19 10:04:28;;;;;;;18.52;10.27;;;;;;;22.32;61.95;101213.00;5054335;28;20037;-67
2023/07/19 10:07:18;;;;;;;19.55;9.30;;;;;;;22.57;62.20;101196.50;5053177;28;20024;-68
2023/07/19 10:09:45;;;;;;;19.58;9.57;;;;;;;22.62;61.30;101202.97;5054508;28;20405;-69
2023/07/19 10:12:16;;;;;;;18.08;9.68;;;;;;;22.58;60.52;101200.91;5054557;28;20028;-69
2023/07/19 10:15:01;;;;;;;16.88;9.80;;;;;;;22.78;60.81;101206.41;5054278;28;20124;-68
2023/07/19 10:17:29;;;;;;;16.42;9.80;;;;;;;23.01;60.22;101200.69;5054496;28;20091;-68
2023/07/19 10:20:03;;;;;;;18.95;10.13;;;;;;;23.15;58.19;101200.03;5054605;28;20032;-69
2023/07/19 10:22:59;;;;;;;16.90;9.45;;;;;;;23.33;57.79;101205.13;5054114;28;20047;-68
2023/07/19 10:25:31;;;;;;;16.40;9.52;;;;;;;23.11;56.61;101189.91;5034702;28;20067;-69
2023/07/19 10:28:11;;;;;;;19.42;9.05;;;;;;;23.20;56.71;101202.56;5053987;28;20091;-68
2023/07/19 10:30:53;;;;;;;16.75;9.15;;;;;;;23.13;55.29;101202.47;5069514;28;20580;-68
2023/07/19 10:33:21;;;;;;;15.70;8.55;;;;;;;23.25;52.73;101203.41;5054258;28;20033;-67
2023/07/19 10:35:51;;;;;;;16.15;8.90;;;;;;;23.24;52.86;101201.81;5053567;28;20024;-65
2023/07/19 10:38:19;;;;;;;17.10;9.40;;;;;;;23.36;53.27;101198.69;5052333;28;20032;-67
2023/07/19 10:40:48;;;;;;;14.93;8.15;;;;;;;23.39;50.90;101205.59;5053774;28;20473;-67
2023/07/19 10:43:14;;;;;;;14.55;8.43;;;;;;;23.46;51.25;101200.84;5053392;28;20100;-67
2023/07/19 10:45:41;;;;;;;15.25;8.73;;;;;;;23.50;50.63;101198.03;5053346;28;20481;-66
2023/07/19 10:48:06;;;;;;;15.02;8.63;;;;;;;23.59;49.65;101201.38;5053235;28;20029;-67
2023/07/19 10:50:31;;;;;;;15.25;8.80;;;;;;;23.48;49.61;101192.78;5053401;28;20035;-67
2023/07/19 10:52:57;;;;;;;15.75;8.93;;;;;;;23.70;50.80;101197.84;5053214;28;20017;-65
2023/07/19 10:55:23;;;;;;;16.75;8.98;;;;;;;23.90;49.85;101187.16;5053234;28;20064;-66
2023/07/19 10:57:49;;;;;;;18.38;8.93;;;;;;;23.96;49.24;101194.09;5053328;28;20021;-67
2023/07/19 11:00:14;;;;;;;16.77;9.60;;;;;;;23.76;50.42;101191.47;5053261;28;20079;-66
2023/07/19 11:02:40;;;;;;;16.88;9.50;;;;;;;23.78;51.08;101193.88;5053371;28;20444;-67
2023/07/19 11:05:09;;;;;;;14.65;8.68;;;;;;;23.71;50.34;101197.44;5053067;28;20495;-66